Time;durP1;ratioP1;P1;durP2;ratioP2;P2;SDS_P1;SDS_P2;PMS_P1;PMS_P2;Temp;Humidity;BMP_temperature;BMP_pressure;BME280_temperature;BME280_humidity;BME280_pressure;Samples;Min_cycle;Max_cycle;Signal;HPM_P1;HPM_P2
2023/09/22 00:00:10;;;;;;;5.03;2.20;;;;;;;17.57;63.27;99811.06;5058110;28;20545;-64
2023/09/22 00:02:39;;;;;;;4.20;2.50;;;;;;;17.54;63.28;99805.41;5059007;28;20052;-65
2023/09/22 00:05:09;;;;;;;5.28;2.67;;;;;;;17.54;63.35;99798.06;5057708;28;20057;-64
2023/09/22 00:07:37;;;;;;;4.53;2.88;;;;;;;17.53;63.44;99801.06;5058526;28;20477;-64
2023/09/22 00:10:08;;;;;;;4.35;2.15;;;;;;;17.53;63.54;99804.59;5058349;28;20050;-64
2023/09/22 00:12:36;;;;;;;4.72;1.98;;;;;;;17.53;63.44;99804.59;5063436;27;20052;-64
2023/09/22 00:15:04;;;;;;;4.30;2.10;;;;;;;17.51;63.37;99798.63;5073410;27;20041;-64
2023/09/22 00:17:35;;;;;;;4.22;2.40;;;;;;;17.51;63.39;99803.28;5061226;28;20052;-64
2023/09/22 00:20:03;;;;;;;4.53;2.35;;;;;;;17.49;63.15;99797.31;5059395;27;20045;-64
2023/09/22 00:22:31;;;;;;;3.75;2.50;;;;;;;17.45;63.18;99793.56;5076040;27;20044;-64
2023/09/22 00:24:59;;;;;;;5.60;2.40;;;;;;;17.48;63.38;99796.50;5058346;27;20045;-64
2023/09/22 00:27:28;;;;;;;5.78;2.47;;;;;;;17.47;63.34;99800.31;5057349;27;20052;-63
2023/09/22 00:29:56;;;;;;;2.95;2.13;;;;;;;17.47;63.38;99805.75;5059663;28;20062;-64
2023/09/22 00:32:24;;;;;;;4.75;2.50;;;;;;;17.47;63.35;99813.09;5055849;27;20093;-63
2023/09/22 00:34:51;;;;;;;5.53;2.85;;;;;;;17.46;63.41;99817.72;5068712;27;20060;-64
2023/09/22 00:37:19;;;;;;;4.22;2.47;;;;;;;17.46;63.38;99816.91;5061795;27;20041;-64
2023/09/22 00:39:47;;;;;;;3.58;2.80;;;;;;;17.44;63.48;99811.78;5060041;28;20592;-64
2023/09/22 00:42:15;;;;;;;4.72;2.60;;;;;;;17.44;63.31;99809.06;5054236;28;20044;-64
2023/09/22 00:44:44;;;;;;;3.88;2.75;;;;;;;17.37;63.42;99803.19;5059676;27;20052;-64
2023/09/22 00:47:14;;;;;;;3.95;2.20;;;;;;;17.42;63.35;99803.13;5059117;27;20053;-64
2023/09/22 00:49:43;;;;;;;5.43;3.05;;;;;;;17.39;63.23;99792.84;5057615;27;20049;-65
2023/09/22 00:52:13;;;;;;;7.60;3.15;;;;;;;17.39;63.29;99792.03;5058480;27;20490;-64
2023/09/22 00:54:41;;;;;;;4.20;2.75;;;;;;;17.37;63.39;99791.50;5059252;28;20066;-65
2023/09/22 00:57:09;;;;;;;5.82;3.08;;;;;;;17.35;63.37;99799.16;5059816;27;20041;-64
2023/09/22 00:59:37;;;;;;;6.30;2.83;;;;;;;17.34;63.41;99795.63;5059047;27;20070;-64
2023/09/22 01:02:06;;;;;;;6.22;3.05;;;;;;;17.34;63.32;99803.75;5058686;28;20055;-64
2023/09/22 01:04:34;;;;;;;3.45;2.38;;;;;;;17.34;63.33;99803.75;5056478;27;20052;-63
2023/09/22 01:07:03;;;;;;;5.15;3.03;;;;;;;17.34;63.37;99794.81;5073337;27;20041;-64
2023/09/22 01:09:30;;;;;;;5.90;2.97;;;;;;;17.33;63.35;99798.66;5059434;27;20112;-64
2023/09/22 01:11:59;;;;;;;6.72;3.30;;;;;;;17.32;63.39;99805.19;5060271;27;20080;-64
2023/09/22 01:14:27;;;;;;;6.60;3.03;;;;;;;17.30;63.44;99805.47;5059882;27;20056;-64
2023/09/22 01:16:55;;;;;;;4.18;2.63;;;;;;;17.31;63.44;99806.28;5061540;27;20045;-64
2023/09/22 01:19:25;;;;;;;11.05;3.22;;;;;;;17.30;63.42;99800.06;5057572;27;20060;-64
2023/09/22 01:21:54;;;;;;;5.47;2.70;;;;;;;17.29;63.45;99794.91;5058853;27;20052;-64
2023/09/22 01:24:25;;;;;;;4.15;2.78;;;;;;;17.29;63.36;99794.91;5060263;27;20044;-63
2023/09/22 01:26:52;;;;;;;4.78;2.60;;;;;;;17.28;63.35;99788.66;5060312;27;20041;-64
2023/09/22 01:29:20;;;;;;;4.63;3.00;;;;;;;17.27;63.40;99775.38;5059873;27;20056;-64
2023/09/22 01:31:48;;;;;;;5.13;3.25;;;;;;;17.26;63.43;99782.72;5059075;27;20132;-64
2023/09/22 01:34:16;;;;;;;4.80;2.85;;;;;;;17.26;63.29;99781.91;5059283;27;20516;-64
2023/09/22 01:36:44;;;;;;;4.82;3.42;;;;;;;17.23;63.30;99778.69;5056852;27;20196;-64
2023/09/22 01:39:16;;;;;;;4.65;3.00;;;;;;;17.23;63.27;99784.13;5058737;28;20059;-64
2023/09/22 01:41:44;;;;;;;4.80;3.22;;;;;;;17.22;63.23;99790.66;5059400;28;20053;-64
2023/09/22 01:44:12;;;;;;;6.60;3.95;;;;;;;17.21;63.48;99783.59;5061721;27;20049;-64
2023/09/22 01:46:39;;;;;;;6.07;3.50;;;;;;;17.20;63.30;99787.41;5052915;28;20051;-64
2023/09/22 01:49:07;;;;;;;5.97;3.13;;;;;;;17.20;63.26;99797.47;5059452;28;20418;-64
2023/09/22 01:51:37;;;;;;;7.45;3.65;;;;;;;17.19;63.19;99802.09;5054682;28;20045;-64
2023/09/22 01:54:06;;;;;;;5.78;2.88;;;;;;;17.21;63.18;99801.78;5054884;28;20049;-64
2023/09/22 01:56:35;;;;;;;4.65;2.70;;;;;;;17.20;63.32;99794.75;5056832;28;20083;-64
2023/09/22 01:59:03;;;;;;;5.63;3.20;;;;;;;17.19;63.39;99798.56;5056853;28;20103;-64
2023/09/22 02:01:31;;;;;;;5.32;2.83;;;;;;;17.16;63.29;99782.84;5058172;28;20041;-64
2023/09/22 02:03:58;;;;;;;5.65;2.70;;;;;;;17.15;63.43;99779.34;5055931;27;20049;-64
2023/09/22 02:06:26;;;;;;;5.70;3.03;;;;;;;17.14;63.28;99785.06;5054895;28;20041;-64
2023/09/22 02:08:54;;;;;;;5.63;3.03;;;;;;;17.11;63.35;99781.00;5061155;27;20045;-64
2023/09/22 02:11:22;;;;;;;5.88;3.40;;;;;;;17.10;63.49;99784.00;5062276;28;20045;-64
2023/09/22 02:13:51;;;;;;;6.63;3.00;;;;;;;17.08;63.40;99787.03;5059660;28;20076;-64
2023/09/22 02:16:20;;;;;;;7.30;3.47;;;;;;;17.08;63.31;99800.59;5058446;28;20053;-64
2023/09/22 02:18:48;;;;;;;5.07;2.78;;;;;;;17.06;63.36;99800.06;5081519;27;20464;-63
2023/09/22 02:21:17;;;;;;;6.13;2.83;;;;;;;17.05;63.33;99790.31;5057583;28;20397;-64
2023/09/22 02:23:45;;;;;;;4.70;2.80;;;;;;;17.05;63.31;99789.50;5059162;28;20053;-63
2023/09/22 02:26:12;;;;;;;6.82;2.95;;;;;;;17.03;63.30;99789.81;5056400;28;20056;-64
2023/09/22 02:28:40;;;;;;;4.28;2.90;;;;;;;17.03;63.24;99789.00;5059242;28;20068;-63
2023/09/22 02:31:09;;;;;;;6.43;2.85;;;;;;;17.01;63.33;99786.56;5057702;28;20191;-63
2023/09/22 02:33:37;;;;;;;8.10;3.60;;;;;;;16.96;63.34;99781.19;5056589;27;20105;-64
2023/09/22 02:36:06;;;;;;;4.40;2.70;;;;;;;17.00;63.29;99789.56;5055076;27;20053;-64
2023/09/22 02:38:34;;;;;;;5.80;2.97;;;;;;;16.99;63.35;99777.91;5083958;27;20109;-63
2023/09/22 02:41:02;;;;;;;4.10;3.03;;;;;;;16.98;63.42;99786.34;5059475;28;20477;-64
2023/09/22 02:43:30;;;;;;;3.33;2.45;;;;;;;16.97;63.38;99787.44;5064093;27;20049;-64
2023/09/22 02:45:57;;;;;;;6.78;2.80;;;;;;;16.96;63.30;99783.09;5060468;27;20065;-64
2023/09/22 02:48:27;;;;;;;4.72;3.25;;;;;;;16.95;63.21;99790.44;5058429;28;20306;-64
2023/09/22 02:50:54;;;;;;;4.93;2.67;;;;;;;16.95;63.33;99784.22;5057402;28;20065;-64
2023/09/22 02:53:22;;;;;;;4.85;2.58;;;;;;;16.94;63.38;99788.00;5058709;28;20105;-64
2023/09/22 02:55:50;;;;;;;5.20;2.50;;;;;;;16.94;63.30;99788.81;5055898;28;20071;-64
2023/09/22 02:58:18;;;;;;;4.00;3.03;;;;;;;16.92;63.44;99786.41;5058595;28;20045;-64
2023/09/22 03:00:45;;;;;;;6.45;2.70;;;;;;;16.91;63.46;99784.78;5056478;28;20049;-64
2023/09/22 03:03:13;;;;;;;3.17;2.40;;;;;;;16.78;63.52;99766.47;5059115;27;20045;-64
2023/09/22 03:05:43;;;;;;;6.05;2.80;;;;;;;16.90;63.26;99791.31;5056090;28;20196;-63
2023/09/22 03:08:10;;;;;;;5.22;2.30;;;;;;;16.91;63.30;99790.22;5057511;28;20048;-64
2023/09/22 03:10:39;;;;;;;7.38;2.67;;;;;;;16.92;63.34;99789.13;5055459;27;20044;-63
2023/09/22 03:13:07;;;;;;;6.15;2.90;;;;;;;16.92;63.22;99796.44;5065627;27;20470;-64
2023/09/22 03:15:35;;;;;;;3.88;2.38;;;;;;;16.87;63.30;99791.88;5061619;27;20113;-64
2023/09/22 03:18:04;;;;;;;4.65;2.80;;;;;;;16.94;63.27;99804.31;5055551;27;20068;-64
2023/09/22 03:20:32;;;;;;;3.22;2.33;;;;;;;16.92;63.09;99797.25;5060620;28;20130;-64
2023/09/22 03:23:01;;;;;;;4.68;3.08;;;;;;;16.93;63.24;99800.78;5062021;28;20106;-64
2023/09/22 03:25:28;;;;;;;4.90;2.22;;;;;;;16.90;63.27;99799.44;5062128;27;20072;-64
2023/09/22 03:27:56;;;;;;;6.43;2.40;;;;;;;16.90;63.28;99798.66;5068888;27;20045;-64
2023/09/22 03:30:24;;;;;;;6.32;2.70;;;;;;;16.88;63.27;99793.50;5060870;28;20470;-64
2023/09/22 03:32:53;;;;;;;3.90;2.55;;;;;;;16.82;63.22;99794.66;5059805;28;20041;-63
2023/09/22 03:35:21;;;;;;;3.60;2.38;;;;;;;16.86;63.24;99811.97;5056117;28;20070;-65
2023/09/22 03:37:52;;;;;;;5.30;2.15;;;;;;;16.86;63.16;99809.25;5059659;28;20111;-63
2023/09/22 03:40:30;;;;;;;6.10;2.50;;;;;;;16.87;63.20;99812.78;5058102;28;20041;-64
2023/09/22 03:42:59;;;;;;;2.97;1.90;;;;;;;16.87;63.28;99808.16;5063293;27;20048;-64
2023/09/22 03:45:27;;;;;;;4.07;2.17;;;;;;;16.86;63.27;99809.25;5061214;28;20080;-63
2023/09/22 03:47:54;;;;;;;2.75;2.00;;;;;;;16.85;63.14;99813.06;5059972;27;20041;-63
2023/09/22 03:50:22;;;;;;;4.30;2.42;;;;;;;16.84;63.20;99814.19;5058865;28;20076;-63
2023/09/22 03:52:50;;;;;;;6.43;2.15;;;;;;;16.82;63.30;99804.72;5059057;27;20101;-63
2023/09/22 03:55:19;;;;;;;3.25;2.30;;;;;;;16.81;63.33;99814.75;4708105;28;10000086;-64
2023/09/22 03:57:48;;;;;;;7.32;2.30;;;;;;;16.80;63.41;99810.41;5060202;27;20113;-64
2023/09/22 04:00:23;;;;;;;3.78;1.70;;;;;;;16.80;63.37;99806.91;5057871;27;20061;-64
2023/09/22 04:02:52;;;;;;;4.18;1.77;;;;;;;16.77;63.39;99808.28;5057132;28;20053;-63
2023/09/22 04:05:20;;;;;;;4.78;2.33;;;;;;;16.78;63.31;99809.09;5053415;28;20411;-64
2023/09/22 04:07:48;;;;;;;6.38;2.10;;;;;;;16.76;63.34;99805.84;5066015;27;20037;-64
2023/09/22 04:10:16;;;;;;;4.60;2.20;;;;;;;16.76;63.33;99808.56;5056058;28;20045;-64
2023/09/22 04:12:45;;;;;;;9.02;2.00;;;;;;;16.75;63.28;99806.94;5059621;27;20459;-64
2023/09/22 04:15:14;;;;;;;3.70;1.80;;;;;;;16.74;63.45;99813.47;5057443;28;20346;-63
2023/09/22 04:17:42;;;;;;;3.30;1.60;;;;;;;16.73;63.13;99809.97;5070456;27;20077;-63
2023/09/22 04:20:12;;;;;;;3.97;1.65;;;;;;;16.72;63.52;99819.19;5090394;27;20051;-63
2023/09/22 04:22:43;;;;;;;3.92;1.70;;;;;;;16.72;63.41;99823.81;5057389;28;20053;-64
2023/09/22 04:25:13;;;;;;;3.97;1.77;;;;;;;16.72;63.31;99829.22;5078183;27;20449;-63
2023/09/22 04:27:43;;;;;;;2.95;1.70;;;;;;;16.71;63.45;99819.47;5058335;27;20462;-63
2023/09/22 04:30:15;;;;;;;5.38;1.77;;;;;;;16.71;63.30;99827.63;5059118;27;20466;-63
2023/09/22 04:32:46;;;;;;;2.47;1.70;;;;;;;16.70;63.36;99821.38;5057863;28;20056;-65
2023/09/22 04:35:14;;;;;;;1.63;1.40;;;;;;;16.69;63.44;99827.91;5057258;28;20098;-64
2023/09/22 04:37:42;;;;;;;3.08;1.95;;;;;;;16.55;63.43;99807.94;5061075;27;20462;-64
2023/09/22 04:40:23;;;;;;;4.53;1.65;;;;;;;16.67;63.60;99829.28;5059325;27;20112;-64
2023/09/22 04:42:51;;;;;;;3.95;1.63;;;;;;;16.67;63.38;99823.84;5056930;28;20060;-64
2023/09/22 04:45:19;;;;;;;3.45;1.40;;;;;;;16.67;63.40;99832.00;5060041;28;20059;-65
2023/09/22 04:47:51;;;;;;;2.35;1.40;;;;;;;16.66;63.45;99825.75;5062257;27;20049;-65
2023/09/22 04:50:19;;;;;;;3.47;1.60;;;;;;;16.64;63.50;99827.94;5059160;27;20057;-64
2023/09/22 04:52:47;;;;;;;3.55;1.55;;;;;;;16.64;63.53;99835.25;5059101;27;20121;-64
2023/09/22 04:55:16;;;;;;;4.07;1.88;;;;;;;16.63;63.49;99829.03;5059435;28;20049;-64
2023/09/22 04:57:44;;;;;;;3.75;1.55;;;;;;;16.63;63.62;99828.22;5059446;27;20056;-64
2023/09/22 05:00:16;;;;;;;4.53;1.67;;;;;;;16.63;63.60;99828.22;5058578;28;20114;-64
2023/09/22 05:02:44;;;;;;;3.00;1.45;;;;;;;16.63;63.51;99831.72;5057276;28;20567;-64
2023/09/22 05:05:16;;;;;;;3.95;1.42;;;;;;;16.63;63.41;99830.94;5052738;27;20045;-64
2023/09/22 05:07:44;;;;;;;1.73;1.30;;;;;;;16.63;63.55;99828.22;5058247;28;20037;-64
2023/09/22 05:10:12;;;;;;;4.38;1.58;;;;;;;16.64;63.52;99830.63;5057807;28;20045;-64
2023/09/22 05:12:40;;;;;;;4.55;1.60;;;;;;;16.63;63.43;99833.63;5057592;27;20052;-64
2023/09/22 05:15:09;;;;;;;4.90;2.15;;;;;;;16.62;63.43;99832.81;5057872;28;20053;-64
2023/09/22 05:17:37;;;;;;;1.80;1.27;;;;;;;16.63;63.36;99833.63;5056504;27;20041;-64
2023/09/22 05:20:11;;;;;;;3.97;1.30;;;;;;;16.63;63.38;99847.19;5056558;28;20045;-64
2023/09/22 05:22:41;;;;;;;1.42;1.30;;;;;;;16.61;63.48;99850.19;5060094;27;20044;-66
2023/09/22 05:25:10;;;;;;;2.15;1.30;;;;;;;16.53;63.46;99845.41;5057733;27;20105;-68
2023/09/22 05:27:39;;;;;;;4.00;1.40;;;;;;;16.60;63.60;99859.44;5058192;28;20047;-66
2023/09/22 05:30:08;;;;;;;1.77;1.10;;;;;;;16.48;63.48;99850.88;5056309;28;20045;-65
2023/09/22 05:32:36;;;;;;;2.65;1.20;;;;;;;16.58;63.41;99865.16;5057371;27;20041;-66
2023/09/22 05:35:05;;;;;;;2.50;1.00;;;;;;;16.58;63.49;99875.19;5055975;28;20059;-66
2023/09/22 05:37:32;;;;;;;2.47;1.35;;;;;;;16.58;63.45;99877.91;5056871;27;20045;-67
2023/09/22 05:40:11;;;;;;;3.10;1.48;;;;;;;16.58;63.52;99883.31;4706185;27;10000325;-66
2023/09/22 05:42:39;;;;;;;3.20;1.50;;;;;;;16.57;63.52;99884.41;5057585;27;20080;-66
2023/09/22 05:45:08;;;;;;;2.55;1.00;;;;;;;16.57;63.38;99885.22;5062955;27;20544;-65
2023/09/22 05:47:37;;;;;;;4.18;1.25;;;;;;;16.54;63.32;99885.00;5051582;28;20049;-66
2023/09/22 05:50:06;;;;;;;2.92;1.10;;;;;;;16.56;63.42;99888.22;5054807;28;20052;-66
2023/09/22 05:52:34;;;;;;;4.90;1.50;;;;;;;16.54;63.36;99877.66;5057805;27;20048;-66
2023/09/22 05:55:04;;;;;;;3.50;1.40;;;;;;;16.54;63.35;99877.66;5055259;28;20053;-67
2023/09/22 05:57:33;;;;;;;4.55;1.23;;;;;;;16.52;63.46;99884.47;5053617;27;20133;-67
2023/09/22 06:00:06;;;;;;;2.35;1.20;;;;;;;16.51;63.41;99893.69;5054180;27;20104;-64
2023/09/22 06:02:34;;;;;;;2.72;1.10;;;;;;;16.53;63.26;99900.44;5088178;27;20607;-66
2023/09/22 06:05:03;;;;;;;5.43;1.30;;;;;;;16.51;63.51;99905.34;5053769;28;20041;-65
2023/09/22 06:07:30;;;;;;;1.70;0.85;;;;;;;16.37;63.32;99884.59;5052169;27;20049;-66
2023/09/22 06:09:58;;;;;;;3.10;1.00;;;;;;;16.45;63.33;99900.25;5058271;28;20044;-64
2023/09/22 06:12:27;;;;;;;10.25;2.33;;;;;;;16.45;64.50;99911.09;5057477;28;20049;-67
2023/09/22 06:14:55;;;;;;;2.50;1.30;;;;;;;16.43;64.23;99921.41;5059856;27;20059;-67
2023/09/22 06:17:23;;;;;;;7.82;1.33;;;;;;;16.43;64.11;99922.22;5060340;28;20049;-67
2023/09/22 06:19:51;;;;;;;2.00;1.50;;;;;;;16.43;64.16;99924.94;5061474;27;20045;-67
2023/09/22 06:22:19;;;;;;;2.55;1.00;;;;;;;16.43;63.85;99913.28;5060530;28;20131;-68
2023/09/22 06:24:47;;;;;;;3.72;1.08;;;;;;;16.44;63.80;99918.44;5058902;27;20061;-68
2023/09/22 06:27:15;;;;;;;2.63;1.20;;;;;;;16.45;63.82;99930.09;5060214;28;20080;-67
2023/09/22 06:29:44;;;;;;;2.95;1.25;;;;;;;16.44;63.81;99931.19;5059896;27;20121;-69
2023/09/22 06:32:12;;;;;;;3.33;1.10;;;;;;;16.42;63.99;99934.16;5058672;28;20153;-72
2023/09/22 06:34:39;;;;;;;3.20;1.25;;;;;;;16.39;64.21;99932.03;5058662;28;20053;-68
2023/09/22 06:37:07;;;;;;;2.53;1.02;;;;;;;16.47;64.25;99934.13;5057498;28;20052;-69
2023/09/22 06:39:35;;;;;;;2.63;0.90;;;;;;;16.48;63.92;99929.53;5064674;27;20053;-68
2023/09/22 06:42:03;;;;;;;3.13;1.15;;;;;;;16.52;64.27;99936.00;5057579;28;20041;-68
2023/09/22 06:44:31;;;;;;;5.07;1.17;;;;;;;16.54;63.84;99944.66;5054613;27;20053;-68
2023/09/22 06:47:01;;;;;;;2.80;1.05;;;;;;;16.57;63.99;99952.22;5059168;28;20053;-69
2023/09/22 06:49:29;;;;;;;3.53;1.10;;;;;;;16.61;63.77;99947.88;5056117;28;20085;-69
2023/09/22 06:51:57;;;;;;;2.85;1.20;;;;;;;16.63;63.75;99950.28;5058342;27;20062;-69
2023/09/22 06:54:25;;;;;;;3.95;1.30;;;;;;;16.64;63.90;99943.78;5059469;28;20136;-68
2023/09/22 06:56:54;;;;;;;2.40;0.98;;;;;;;16.65;63.90;99948.13;5056586;28;20056;-68
2023/09/22 06:59:22;;;;;;;1.88;1.13;;;;;;;16.66;63.71;99950.56;5071060;27;20041;-68
2023/09/22 07:01:50;;;;;;;1.75;0.82;;;;;;;16.66;63.73;99955.19;5058016;28;20091;-68
2023/09/22 07:04:21;;;;;;;3.80;1.27;;;;;;;16.59;63.85;99939.19;5061716;28;20057;-68
2023/09/22 07:06:49;;;;;;;2.67;0.93;;;;;;;16.64;63.93;99955.44;5062014;28;20049;-68
2023/09/22 07:09:16;;;;;;;2.75;0.90;;;;;;;16.63;63.81;99953.81;5059380;27;20048;-68
2023/09/22 07:11:44;;;;;;;2.42;1.13;;;;;;;16.64;63.88;99955.44;5060271;28;20074;-68
2023/09/22 07:14:12;;;;;;;2.55;0.93;;;;;;;16.63;64.18;99961.94;5059077;28;20118;-68
2023/09/22 07:16:40;;;;;;;4.35;1.08;;;;;;;16.73;63.86;99955.66;5057678;27;20068;-68
2023/09/22 07:19:08;;;;;;;1.95;1.00;;;;;;;16.73;64.82;99953.75;5059798;27;20132;-68
2023/09/22 07:21:37;;;;;;;1.77;1.10;;;;;;;16.70;64.01;99975.22;5060795;28;20053;-68
2023/09/22 07:24:05;;;;;;;7.32;1.20;;;;;;;16.66;64.34;99966.84;5054570;28;20136;-68
2023/09/22 07:26:33;;;;;;;2.30;1.10;;;;;;;16.67;64.05;99976.59;5059782;28;20057;-68
2023/09/22 07:29:01;;;;;;;2.20;1.00;;;;;;;16.73;64.38;99977.38;5060034;28;20144;-69
2023/09/22 07:31:30;;;;;;;1.88;1.23;;;;;;;16.80;64.37;99986.00;5058609;28;20060;-69
2023/09/22 07:33:59;;;;;;;2.15;0.85;;;;;;;16.70;64.07;99977.94;5055560;27;21021;-69
2023/09/22 07:36:27;;;;;;;2.88;1.10;;;;;;;16.67;63.86;99982.03;5058457;28;20051;-69
2023/09/22 07:38:56;;;;;;;3.25;1.23;;;;;;;16.65;64.22;99995.06;5059644;27;20052;-69
2023/09/22 07:41:24;;;;;;;6.75;1.48;;;;;;;16.64;64.15;99990.69;5059213;27;20394;-67
2023/09/22 07:43:53;;;;;;;8.30;1.63;;;;;;;16.65;64.12;99995.06;5058485;28;20049;-68
2023/09/22 07:46:22;;;;;;;1.88;0.85;;;;;;;16.68;64.08;99999.13;5060289;27;20149;-68
2023/09/22 07:48:51;;;;;;;2.30;0.90;;;;;;;16.65;63.93;100003.22;5061210;28;20061;-68
2023/09/22 07:51:20;;;;;;;1.95;0.90;;;;;;;16.63;63.96;100007.25;5061826;28;20498;-68
2023/09/22 07:53:47;;;;;;;8.35;1.58;;;;;;;16.64;64.10;100006.16;5061681;28;20060;-68
2023/09/22 07:56:18;;;;;;;2.25;1.10;;;;;;;16.63;63.93;100002.66;5058809;28;20045;-68
2023/09/22 07:58:46;;;;;;;1.73;0.80;;;;;;;16.62;63.93;100011.06;5066433;27;20049;-68
2023/09/22 08:01:34;;;;;;;2.40;1.00;;;;;;;16.63;63.88;100015.41;5059194;28;20080;-68
2023/09/22 08:04:02;;;;;;;2.70;1.17;;;;;;;16.62;63.82;100019.22;5056154;28;20112;-67
2023/09/22 08:06:31;;;;;;;2.78;1.20;;;;;;;16.59;63.84;100010.53;5062158;27;20069;-68
2023/09/22 08:08:59;;;;;;;3.90;1.02;;;;;;;16.57;63.85;100009.19;5059315;28;20056;-68
2023/09/22 08:11:29;;;;;;;2.97;0.77;;;;;;;16.61;63.83;100018.41;5061113;28;20052;-68
2023/09/22 08:13:58;;;;;;;3.70;1.27;;;;;;;16.64;63.94;100020.53;5061415;27;20132;-68
2023/09/22 08:16:26;;;;;;;4.10;0.90;;;;;;;16.65;63.66;100024.91;5061682;27;20462;-68
2023/09/22 08:18:54;;;;;;;3.28;1.10;;;;;;;16.67;63.64;100020.00;5051042;28;20045;-68
2023/09/22 08:21:23;;;;;;;3.15;0.90;;;;;;;16.76;64.04;100015.59;5058310;28;20052;-68
2023/09/22 08:23:51;;;;;;;2.35;1.08;;;;;;;16.80;64.46;100026.69;5061132;28;20045;-68
2023/09/22 08:26:23;;;;;;;3.35;0.98;;;;;;;16.87;63.56;100016.34;5060124;28;20055;-68
2023/09/22 08:28:53;;;;;;;3.50;1.00;;;;;;;16.74;63.22;100035.97;5053228;28;20108;-67
2023/09/22 08:31:20;;;;;;;2.40;1.10;;;;;;;16.71;63.31;100021.06;5056595;27;20063;-68
2023/09/22 08:33:48;;;;;;;1.52;1.02;;;;;;;16.74;63.35;100031.34;5055586;27;20118;-68
2023/09/22 08:36:16;;;;;;;3.63;1.00;;;;;;;16.68;63.27;100023.53;5054714;28;20041;-65
2023/09/22 08:38:44;;;;;;;3.85;1.20;;;;;;;16.74;63.47;100030.53;5058133;28;20053;-68
2023/09/22 08:41:13;;;;;;;1.70;0.75;;;;;;;16.80;63.98;100037.56;5059617;28;20094;-68
2023/09/22 08:43:41;;;;;;;1.25;0.80;;;;;;;16.73;63.60;100043.31;5057220;28;20053;-68
2023/09/22 08:46:12;;;;;;;4.70;1.00;;;;;;;16.69;63.29;100039.53;5057596;27;20044;-68
2023/09/22 08:48:40;;;;;;;2.35;1.08;;;;;;;16.68;63.46;100040.63;5066731;27;20139;-68
2023/09/22 08:51:09;;;;;;;1.75;1.05;;;;;;;16.65;63.68;100049.31;5141338;27;20046;-68
2023/09/22 08:53:38;;;;;;;1.75;1.15;;;;;;;16.74;63.87;100049.53;5137438;27;20055;-68
2023/09/22 08:56:06;;;;;;;1.52;0.80;;;;;;;16.80;63.67;100051.94;5139404;27;20500;-68
2023/09/22 08:58:35;;;;;;;1.95;0.90;;;;;;;16.74;63.76;100052.25;5143026;27;20040;-68
2023/09/22 09:01:03;;;;;;;2.35;1.15;;;;;;;16.74;63.47;100044.94;5143401;27;20093;-68
2023/09/22 09:03:33;;;;;;;2.15;0.80;;;;;;;16.72;63.75;100047.13;5143236;27;20047;-68
2023/09/22 09:06:06;;;;;;;2.85;1.15;;;;;;;16.72;63.67;100049.81;5141710;27;20050;-68
2023/09/22 09:08:35;;;;;;;1.52;0.80;;;;;;;16.78;64.51;100045.16;5143144;27;20071;-68
2023/09/22 09:11:08;;;;;;;3.03;1.50;;;;;;;16.78;64.00;100050.59;5140949;27;20425;-68
2023/09/22 09:13:37;;;;;;;3.03;1.40;;;;;;;16.76;63.60;100050.88;5141257;27;20119;-68
2023/09/22 09:16:07;;;;;;;3.20;1.20;;;;;;;16.76;63.72;100056.31;5142344;27;20058;-68
2023/09/22 09:18:37;;;;;;;4.60;1.02;;;;;;;16.78;63.87;100062.25;5138175;27;20043;-68
2023/09/22 09:21:10;;;;;;;2.35;1.15;;;;;;;16.85;63.78;100054.63;5142602;27;20035;-68
2023/09/22 09:23:39;;;;;;;2.97;1.10;;;;;;;16.90;63.83;100054.56;5142897;27;20718;-68
2023/09/22 09:26:07;;;;;;;2.10;0.90;;;;;;;16.87;63.44;100054.34;5142006;27;20085;-68
2023/09/22 09:28:40;;;;;;;0.90;0.63;;;;;;;16.86;63.47;100060.84;5143103;27;20051;-68
2023/09/22 09:31:10;;;;;;;0.70;0.60;;;;;;;16.86;63.69;100058.13;5140285;27;20043;-68
2023/09/22 09:33:51;;;;;;;2.72;1.02;;;;;;;16.74;63.79;100042.22;5142559;27;20070;-68
2023/09/22 09:36:19;;;;;;;2.42;1.00;;;;;;;16.78;63.58;100043.28;5137396;27;20047;-68
2023/09/22 09:38:46;;;;;;;2.10;0.93;;;;;;;16.95;63.43;100055.63;5141893;27;20139;-67
2023/09/22 09:41:19;;;;;;;1.23;1.02;;;;;;;16.99;63.21;100064.84;5138401;27;20039;-68
2023/09/22 09:43:48;;;;;;;3.97;1.00;;;;;;;16.96;63.18;100068.91;5140724;27;20047;-68
2023/09/22 09:46:17;;;;;;;1.83;1.00;;;;;;;17.06;63.54;100059.88;5141426;27;20054;-68
2023/09/22 09:48:47;;;;;;;1.70;0.90;;;;;;;17.14;64.17;100065.53;5141693;27;20043;-68
2023/09/22 09:51:20;;;;;;;3.53;0.88;;;;;;;17.09;63.56;100068.28;5056388;28;20069;-68
2023/09/22 09:53:51;;;;;;;3.58;1.10;;;;;;;17.52;64.65;100060.25;5058087;28;20052;-68
2023/09/22 09:56:19;;;;;;;3.25;0.95;;;;;;;17.29;63.28;100072.72;5059161;28;20132;-68
2023/09/22 09:58:49;;;;;;;3.50;1.48;;;;;;;17.30;63.49;100062.69;5054357;27;20048;-68
2023/09/22 10:01:19;;;;;;;1.80;0.82;;;;;;;17.35;63.51;100049.03;5058230;28;20098;-68
2023/09/22 10:03:51;;;;;;;3.60;1.05;;;;;;;17.26;63.37;100054.28;5053831;27;20056;-68
2023/09/22 10:06:22;;;;;;;2.38;0.70;;;;;;;17.27;63.68;100047.75;5058283;28;20116;-68
2023/09/22 10:08:50;;;;;;;2.83;0.95;;;;;;;17.39;64.36;100050.88;5057646;28;20074;-68
2023/09/22 10:11:18;;;;;;;5.18;1.77;;;;;;;17.31;63.64;100051.53;5055532;27;20077;-68
2023/09/22 10:13:46;;;;;;;1.48;0.90;;;;;;;17.27;63.45;100060.53;5059122;28;20078;-67
2023/09/22 10:16:29;;;;;;;2.85;1.48;;;;;;;17.24;62.97;100053.75;5056375;27;20045;-66
2023/09/22 10:18:59;;;;;;;1.90;0.90;;;;;;;17.23;63.46;100057.56;5058019;27;20079;-65
2023/09/22 10:21:38;;;;;;;4.60;1.50;;;;;;;17.30;63.01;100051.81;5057455;28;20049;-67
2023/09/22 10:24:24;;;;;;;2.10;1.08;;;;;;;17.35;62.96;100049.03;5059630;27;20053;-67
2023/09/22 10:27:13;;;;;;;2.75;0.82;;;;;;;17.35;62.80;100044.41;5059228;28;20041;-66
2023/09/22 10:29:43;;;;;;;2.58;0.88;;;;;;;17.47;63.80;100044.81;5052655;28;20057;-69
2023/09/22 10:32:23;;;;;;;5.60;1.33;;;;;;;17.71;62.61;100052.22;5061323;27;20041;-67
2023/09/22 10:34:54;;;;;;;2.58;1.42;;;;;;;17.49;62.02;100050.78;5058870;28;20183;-67
2023/09/22 10:37:23;;;;;;;5.13;1.13;;;;;;;17.45;62.11;100059.78;5058955;28;20049;-67
2023/09/22 10:39:52;;;;;;;2.80;1.02;;;;;;;17.68;63.83;100047.34;5057390;27;20079;-67
2023/09/22 10:42:20;;;;;;;1.50;0.75;;;;;;;17.58;62.82;100057.22;5059056;28;20037;-67
2023/09/22 10:44:59;;;;;;;2.03;1.05;;;;;;;17.50;62.54;100043.44;5061766;28;20497;-67
2023/09/22 10:47:38;;;;;;;1.70;0.80;;;;;;;17.83;64.68;100061.59;5058931;27;20045;-67
2023/09/22 10:50:18;;;;;;;3.05;1.13;;;;;;;17.84;63.22;100060.50;5058225;27;20094;-67
2023/09/22 10:52:53;;;;;;;3.13;1.08;;;;;;;17.83;63.54;100052.63;5061722;28;20131;-67
2023/09/22 10:55:26;;;;;;;3.33;1.00;;;;;;;17.73;62.60;100055.47;5067012;27;20045;-67
2023/09/22 10:57:55;;;;;;;3.40;1.20;;;;;;;17.65;62.36;100054.16;5059797;27;20512;-67
2023/09/22 11:00:23;;;;;;;4.40;1.20;;;;;;;17.56;61.69;100053.16;5060601;28;20049;-66
2023/09/22 11:02:51;;;;;;;2.65;1.25;;;;;;;17.61;61.20;100055.00;5062629;27;20078;-67
2023/09/22 11:05:20;;;;;;;3.03;0.93;;;;;;;17.63;61.71;100048.19;5059938;28;20061;-67
2023/09/22 11:07:49;;;;;;;2.53;1.33;;;;;;;17.63;61.55;100058.25;5060723;27;20717;-67
2023/09/22 11:10:20;;;;;;;5.43;1.05;;;;;;;17.64;61.05;100051.72;5060846;28;20048;-67
2023/09/22 11:12:50;;;;;;;2.47;0.98;;;;;;;17.61;60.84;100055.00;5061661;27;20045;-67
2023/09/22 11:15:18;;;;;;;1.73;0.80;;;;;;;17.64;60.38;100063.41;5061169;28;20101;-67
2023/09/22 11:17:47;;;;;;;4.78;1.25;;;;;;;17.61;60.71;100058.53;5065578;27;20052;-67
2023/09/22 11:20:23;;;;;;;3.63;1.00;;;;;;;17.72;60.78;100065.53;5060300;28;20079;-67
2023/09/22 11:22:52;;;;;;;3.00;1.10;;;;;;;17.79;61.45;100060.56;5061129;28;20045;-67
2023/09/22 11:25:21;;;;;;;2.72;0.95;;;;;;;17.85;61.96;100061.31;5059749;28;20048;-67
2023/09/22 11:27:50;;;;;;;4.30;1.23;;;;;;;17.96;62.78;100057.38;5063411;27;21647;-67
2023/09/22 11:30:25;;;;;;;2.67;0.98;;;;;;;17.81;61.65;100047.47;5060265;28;20523;-67
2023/09/22 11:32:54;;;;;;;2.08;1.00;;;;;;;17.91;61.45;100056.63;5059508;27;20044;-67
2023/09/22 11:35:33;;;;;;;2.08;1.17;;;;;;;17.89;61.22;100062.34;5059581;27;20085;-67
2023/09/22 11:38:01;;;;;;;1.88;1.00;;;;;;;17.93;61.12;100068.81;5057842;28;20056;-67
2023/09/22 11:40:39;;;;;;;2.90;1.10;;;;;;;17.99;62.77;100064.94;5059709;28;20076;-67